Time;durP1;ratioP1;P1;durP2;ratioP2;P2;SDS_P1;SDS_P2;PMS_P1;PMS_P2;Temp;Humidity;BMP_temperature;BMP_pressure;BME280_temperature;BME280_humidity;BME280_pressure;Samples;Min_cycle;Max_cycle;Signal;HPM_P1;HPM_P2
2022/05/22 00:01:50;;;;;;;5.70;2.83;;;22.10;88.60;;;;;;4985063;28;20544;-71
2022/05/22 00:04:15;;;;;;;9.77;2.70;;;22.10;87.50;;;;;;4990654;28;20026;-71
2022/05/22 00:06:41;;;;;;;3.45;2.38;;;22.10;91.00;;;;;;4992707;28;20481;-72
2022/05/22 00:09:07;;;;;;;6.10;2.50;;;22.10;90.10;;;;;;4986359;28;20031;-66
2022/05/22 00:11:33;;;;;;;7.60;3.08;;;22.10;88.60;;;;;;4992864;28;20022;-72
2022/05/22 00:13:59;;;;;;;6.68;2.53;;;22.10;89.10;;;;;;4985099;28;20019;-72
2022/05/22 00:16:40;;;;;;;6.47;2.58;;;22.10;93.00;;;;;;4987466;28;20034;-66
2022/05/22 00:19:10;;;;;;;4.78;2.72;;;21.80;93.90;;;;;;4985121;28;20476;-67
2022/05/22 00:21:37;;;;;;;6.43;3.00;;;21.80;91.80;;;;;;4985786;28;20047;-69
2022/05/22 00:24:04;;;;;;;3.13;2.10;;;21.80;92.60;;;;;;4986019;28;20011;-65
2022/05/22 00:26:31;;;;;;;3.25;2.42;;;21.80;92.80;;;;;;4993006;28;20492;-70
2022/05/22 00:28:57;;;;;;;3.80;2.40;;;21.80;94.20;;;;;;4994361;28;20025;-71
2022/05/22 00:31:23;;;;;;;6.05;2.80;;;21.70;97.50;;;;;;4985129;28;20039;-62
2022/05/22 00:33:49;;;;;;;5.18;2.45;;;21.60;98.30;;;;;;4987174;28;20038;-66
2022/05/22 00:36:15;;;;;;;6.22;2.38;;;21.60;99.90;;;;;;4976676;28;20110;-71
2022/05/22 00:38:41;;;;;;;4.88;2.63;;;21.60;99.60;;;;;;4992855;28;20117;-68
2022/05/22 00:41:07;;;;;;;6.20;2.72;;;21.60;99.90;;;;;;4974329;28;20465;-72
2022/05/22 00:43:40;;;;;;;8.88;3.75;;;21.60;99.80;;;;;;4972123;28;20071;-72
2022/05/22 00:46:11;;;;;;;6.72;3.80;;;21.50;99.90;;;;;;4974464;28;20109;-69
2022/05/22 00:48:39;;;;;;;6.53;3.28;;;21.30;99.90;;;;;;4975164;28;20457;-72
2022/05/22 00:51:20;;;;;;;5.90;3.30;;;21.20;99.90;;;;;;4984589;28;20031;-73
2022/05/22 00:53:57;;;;;;;10.07;4.55;;;21.00;99.90;;;;;;4994152;28;20031;-73
2022/05/22 00:56:43;;;;;;;11.65;4.53;;;20.90;99.90;;;;;;4994406;28;20100;-73
2022/05/22 00:59:14;;;;;;;7.47;4.32;;;20.70;99.90;;;;;;4994708;28;20033;-70
2022/05/22 01:01:40;;;;;;;8.67;4.00;;;20.70;99.90;;;;;;4994317;28;20042;-64
2022/05/22 01:04:14;;;;;;;8.55;4.10;;;20.60;99.90;;;;;;4993164;28;20456;-69
2022/05/22 01:06:46;;;;;;;8.05;3.83;;;20.60;99.90;;;;;;4988093;28;20422;-72
2022/05/22 01:09:13;;;;;;;11.20;4.47;;;20.60;99.90;;;;;;4992930;28;20023;-71
2022/05/22 01:11:40;;;;;;;5.82;3.92;;;20.50;99.90;;;;;;4994413;28;20023;-68
2022/05/22 01:14:18;;;;;;;10.07;4.45;;;20.60;99.90;;;;;;4989497;28;20031;-70
2022/05/22 01:16:46;;;;;;;13.60;4.55;;;20.50;99.90;;;;;;4989537;28;20081;-73
2022/05/22 01:19:16;;;;;;;10.32;4.70;;;20.40;99.90;;;;;;4989495;28;20037;-71
2022/05/22 01:21:58;;;;;;;9.88;4.93;;;20.40;99.90;;;;;;4989603;28;20070;-73
2022/05/22 01:24:26;;;;;;;8.77;3.97;;;20.50;99.90;;;;;;4992396;28;20026;-73
2022/05/22 01:26:54;;;;;;;9.90;4.43;;;20.50;99.90;;;;;;4992684;28;20030;-70
2022/05/22 01:29:46;;;;;;;9.05;4.20;;;20.50;99.90;;;;;;4989939;28;20081;-73
2022/05/22 01:32:12;;;;;;;9.32;5.13;;;20.60;99.90;;;;;;4991795;28;20085;-73
2022/05/22 01:34:41;;;;;;;9.68;4.93;;;20.60;99.90;;;;;;5009020;28;20031;-71
2022/05/22 01:37:07;;;;;;;10.52;4.30;;;20.60;99.90;;;;;;4992171;28;20109;-71
2022/05/22 01:39:33;;;;;;;11.75;4.25;;;20.60;99.90;;;;;;4988496;28;20023;-72
2022/05/22 01:41:59;;;;;;;7.05;4.18;;;20.60;99.90;;;;;;4989834;28;20049;-72
2022/05/22 01:44:26;;;;;;;11.70;4.57;;;20.60;99.90;;;;;;4988385;28;20031;-72
2022/05/22 01:46:54;;;;;;;7.68;4.05;;;20.60;99.90;;;;;;4988853;28;20108;-70
2022/05/22 01:49:23;;;;;;;10.57;4.00;;;20.50;99.90;;;;;;4988754;28;20043;-72
2022/05/22 01:51:50;;;;;;;12.65;4.40;;;20.60;99.90;;;;;;4989094;28;20027;-69
2022/05/22 01:54:16;;;;;;;9.60;4.07;;;20.60;99.90;;;;;;4991393;28;20039;-72
2022/05/22 01:56:42;;;;;;;6.72;3.70;;;20.60;99.90;;;;;;4993396;28;20031;-72
2022/05/22 01:59:11;;;;;;;8.52;3.88;;;20.60;99.90;;;;;;4991628;28;20038;-72
2022/05/22 02:01:50;;;;;;;7.32;3.45;;;20.60;99.90;;;;;;4991600;28;20519;-67
2022/05/22 02:04:16;;;;;;;10.00;3.72;;;20.60;99.90;;;;;;4992387;28;20027;-69
2022/05/22 02:09:30;;;;;;;10.07;4.00;;;20.50;99.90;;;;;;4991906;28;20299;-72
2022/05/22 02:11:56;;;;;;;7.95;3.70;;;20.50;99.90;;;;;;4991599;28;20125;-70
2022/05/22 02:14:22;;;;;;;7.65;3.88;;;20.20;99.90;;;;;;4991918;28;20031;-69
2022/05/22 02:16:57;;;;;;;7.45;3.75;;;20.10;99.90;;;;;;4991761;28;20435;-70
2022/05/22 02:19:23;;;;;;;8.70;4.10;;;19.80;99.90;;;;;;4992136;28;20109;-69
2022/05/22 02:21:48;;;;;;;7.78;4.22;;;19.80;99.90;;;;;;4991426;28;20424;-73
2022/05/22 02:24:16;;;;;;;6.63;3.80;;;19.80;99.90;;;;;;4991415;28;20473;-71
2022/05/22 02:26:44;;;;;;;9.27;4.45;;;19.80;99.90;;;;;;4991882;28;20022;-71
2022/05/22 02:29:14;;;;;;;9.85;4.68;;;19.80;99.90;;;;;;4991304;28;20029;-68
2022/05/22 02:31:40;;;;;;;8.25;4.50;;;19.80;99.90;;;;;;4991211;28;20046;-70
2022/05/22 02:34:06;;;;;;;8.48;4.38;;;19.90;99.90;;;;;;4991599;28;20033;-69
2022/05/22 02:36:34;;;;;;;8.18;3.45;;;19.90;99.90;;;;;;4988457;28;20038;-73
2022/05/22 02:39:00;;;;;;;7.05;3.42;;;19.90;99.90;;;;;;4989603;28;20389;-71
2022/05/22 02:41:29;;;;;;;8.60;4.53;;;19.90;99.90;;;;;;4991084;28;20040;-73
2022/05/22 02:43:59;;;;;;;6.70;3.72;;;20.00;99.90;;;;;;4991346;28;20480;-73
2022/05/22 02:46:25;;;;;;;4.90;3.28;;;20.00;99.90;;;;;;4991129;28;20050;-71
2022/05/22 02:48:52;;;;;;;7.63;3.55;;;20.00;99.90;;;;;;4992916;28;20030;-73
2022/05/22 02:51:23;;;;;;;5.85;3.00;;;20.00;99.90;;;;;;4991569;28;20089;-73
2022/05/22 02:53:49;;;;;;;6.13;3.25;;;20.00;99.90;;;;;;4992801;28;20031;-73
2022/05/22 02:56:20;;;;;;;7.00;3.25;;;20.00;99.90;;;;;;4992922;28;20051;-72
2022/05/22 02:59:18;;;;;;;8.80;3.95;;;19.90;99.90;;;;;;4951500;28;20112;-73
2022/05/22 03:01:49;;;;;;;8.77;4.22;;;19.80;99.90;;;;;;4951115;28;20071;-73
2022/05/22 03:04:16;;;;;;;9.57;4.30;;;19.60;99.90;;;;;;4955300;28;20024;-73
2022/05/22 03:06:42;;;;;;;7.82;3.67;;;19.60;99.90;;;;;;4951351;28;20118;-73
2022/05/22 03:09:15;;;;;;;6.18;3.25;;;19.40;99.90;;;;;;4954788;28;20127;-73
2022/05/22 03:11:47;;;;;;;7.80;3.80;;;19.50;99.90;;;;;;4955149;28;20520;-73
2022/05/22 03:14:15;;;;;;;4.85;3.28;;;19.50;99.90;;;;;;4949211;28;20059;-73
2022/05/22 03:16:41;;;;;;;12.63;3.90;;;19.50;99.90;;;;;;4955087;29;20062;-73
2022/05/22 03:19:14;;;;;;;6.20;4.38;;;19.30;99.90;;;;;;4955266;28;20062;-72
2022/05/22 03:21:42;;;;;;;7.50;4.32;;;19.20;99.90;;;;;;4954880;28;20149;-71
2022/05/22 03:24:09;;;;;;;14.57;4.80;;;19.20;99.90;;;;;;4955155;28;20024;-72
2022/05/22 03:26:35;;;;;;;8.40;4.40;;;19.00;99.90;;;;;;4955255;28;20031;-72
2022/05/22 03:29:01;;;;;;;8.98;4.45;;;19.20;99.90;;;;;;4954769;28;20031;-73
2022/05/22 03:31:27;;;;;;;7.47;4.88;;;19.00;99.90;;;;;;4955205;28;20039;-71
2022/05/22 03:33:54;;;;;;;5.10;3.83;;;19.00;99.90;;;;;;4958967;28;20035;-72
2022/05/22 03:36:20;;;;;;;9.65;4.00;;;19.00;99.90;;;;;;4995780;28;20039;-73
2022/05/22 03:38:46;;;;;;;9.25;4.40;;;19.00;99.90;;;;;;5010761;28;20027;-73
2022/05/22 03:41:13;;;;;;;7.70;4.10;;;19.00;99.90;;;;;;4994082;28;20547;-72
2022/05/22 03:43:39;;;;;;;8.13;3.90;;;19.10;99.90;;;;;;5010885;28;20117;-73
2022/05/22 03:46:21;;;;;;;6.88;3.28;;;19.20;99.90;;;;;;5010257;28;20042;-73
2022/05/22 03:48:49;;;;;;;9.43;3.90;;;19.30;99.90;;;;;;5010610;28;20034;-73
2022/05/22 03:51:16;;;;;;;9.40;3.85;;;19.40;99.90;;;;;;4994333;28;20038;-72
2022/05/22 03:53:42;;;;;;;8.80;3.80;;;19.40;99.90;;;;;;4994345;28;20026;-72
2022/05/22 03:56:18;;;;;;;5.63;3.47;;;19.50;99.90;;;;;;4994177;28;20022;-72
2022/05/22 03:58:45;;;;;;;5.28;3.22;;;19.60;99.90;;;;;;4990104;28;20129;-72
2022/05/22 04:01:12;;;;;;;3.85;2.85;;;20.80;99.90;;;;;;4990696;28;20176;-71
2022/05/22 04:03:45;;;;;;;4.72;3.20;;;21.50;99.90;;;;;;4990791;28;20030;-73
2022/05/22 04:06:12;;;;;;;6.68;2.90;;;22.20;99.90;;;;;;4975907;28;20031;-73
2022/05/22 04:08:38;;;;;;;4.55;3.22;;;23.10;99.90;;;;;;4988557;28;20487;-71
2022/05/22 04:11:13;;;;;;;4.70;2.80;;;23.70;99.90;;;;;;4991202;28;20034;-73
2022/05/22 04:13:40;;;;;;;4.38;2.90;;;23.80;99.90;;;;;;4991546;28;20080;-73
2022/05/22 04:16:06;;;;;;;5.65;3.15;;;23.00;99.90;;;;;;4994712;28;20081;-69
2022/05/22 04:18:33;;;;;;;6.05;3.30;;;23.00;99.90;;;;;;4990331;28;20386;-73
2022/05/22 04:20:59;;;;;;;5.53;3.83;;;24.00;99.90;;;;;;4990470;28;20117;-71
2022/05/22 04:26:39;;;;;;;10.85;3.90;;;25.20;99.90;;;;;;4953840;29;20407;-73
2022/05/22 04:29:09;;;;;;;5.93;3.35;;;26.00;99.90;;;;;;4952957;28;20035;-72
2022/05/22 04:31:35;;;;;;;6.85;3.83;;;24.90;99.90;;;;;;4953673;29;20067;-73
2022/05/22 04:34:16;;;;;;;7.18;4.28;;;24.40;99.90;;;;;;4954056;28;20035;-72
2022/05/22 04:36:43;;;;;;;6.18;3.95;;;23.60;99.90;;;;;;4953243;28;20035;-73
2022/05/22 04:39:20;;;;;;;13.02;4.78;;;22.70;99.90;;;;;;4953320;28;20031;-72
2022/05/22 04:41:56;;;;;;;6.25;3.88;;;22.90;99.90;;;;;;4953346;28;20054;-73
2022/05/22 04:44:22;;;;;;;7.00;4.25;;;22.90;99.90;;;;;;4953440;28;20058;-71
2022/05/22 04:46:59;;;;;;;9.52;5.20;;;23.00;99.90;;;;;;4952537;28;20051;-73
2022/05/22 04:49:26;;;;;;;7.85;4.57;;;22.50;99.90;;;;;;4937471;29;20154;-73
2022/05/22 04:51:52;;;;;;;9.38;4.25;;;22.50;99.90;;;;;;4953365;29;20126;-72
2022/05/22 04:54:18;;;;;;;10.80;4.60;;;23.00;99.90;;;;;;4953086;29;20042;-72
2022/05/22 04:57:01;;;;;;;6.40;4.25;;;22.90;99.90;;;;;;4953058;28;20418;-72
2022/05/22 04:59:27;;;;;;;9.98;5.00;;;22.70;99.90;;;;;;4956091;28;20121;-73
2022/05/22 05:01:53;;;;;;;8.02;4.18;;;22.40;99.90;;;;;;4973185;28;20074;-71
2022/05/22 05:04:26;;;;;;;7.65;4.50;;;22.20;99.90;;;;;;4973447;28;20035;-71
2022/05/22 05:07:13;;;;;;;7.72;4.47;;;21.90;99.90;;;;;;4967086;28;20063;-72
2022/05/22 05:10:01;;;;;;;11.43;4.80;;;21.60;99.90;;;;;;4973427;28;20039;-72
2022/05/22 05:12:46;;;;;;;7.53;3.92;;;21.40;99.90;;;;;;4974610;28;20125;-71
2022/05/22 05:15:29;;;;;;;17.10;4.75;;;21.40;99.90;;;;;;4973224;28;20031;-72
2022/05/22 05:18:13;;;;;;;7.95;3.83;;;21.00;99.90;;;;;;4973320;28;20038;-71
2022/05/22 05:20:42;;;;;;;9.73;4.75;;;21.00;99.90;;;;;;4973217;28;20065;-71
2022/05/22 05:23:08;;;;;;;11.27;4.93;;;20.80;99.90;;;;;;4973090;28;20031;-72
2022/05/22 05:26:10;;;;;;;6.90;4.53;;;20.60;99.90;;;;;;4933809;29;20411;-71
2022/05/22 05:28:37;;;;;;;7.53;4.47;;;20.60;99.90;;;;;;4933610;29;20482;-72
2022/05/22 05:31:03;;;;;;;8.50;4.55;;;20.60;99.90;;;;;;4933333;29;20032;-72
2022/05/22 05:33:32;;;;;;;9.82;4.93;;;20.60;99.90;;;;;;4932902;29;20071;-73
2022/05/22 05:36:24;;;;;;;11.20;4.88;;;20.60;99.90;;;;;;4930755;29;20067;-72
2022/05/22 05:39:09;;;;;;;11.73;5.45;;;20.60;99.90;;;;;;4919727;29;20062;-72
2022/05/22 05:41:44;;;;;;;7.25;4.30;;;20.80;99.90;;;;;;4933328;29;20054;-72
2022/05/22 05:44:11;;;;;;;10.88;5.10;;;21.10;99.90;;;;;;4932200;29;20028;-73
2022/05/22 05:46:48;;;;;;;11.90;5.07;;;21.50;99.90;;;;;;4944144;28;20126;-74
2022/05/22 05:49:14;;;;;;;7.70;4.78;;;21.70;99.90;;;;;;4953195;28;20031;-70
2022/05/22 05:51:43;;;;;;;8.00;4.47;;;21.50;99.90;;;;;;4951974;29;20035;-70
2022/05/22 05:54:09;;;;;;;8.30;4.85;;;21.50;99.90;;;;;;4938934;28;20047;-72
2022/05/22 05:57:04;;;;;;;7.97;4.30;;;21.50;99.90;;;;;;4971583;28;20077;-73
2022/05/22 05:59:44;;;;;;;9.25;3.58;;;21.40;99.90;;;;;;4966088;28;20133;-71
2022/05/22 06:02:18;;;;;;;13.95;4.75;;;21.50;99.90;;;;;;4991938;28;20046;-72
2022/05/22 06:04:44;;;;;;;9.85;4.15;;;21.40;99.90;;;;;;4991562;28;20026;-72
2022/05/22 06:07:10;;;;;;;9.40;4.15;;;21.30;99.90;;;;;;4975390;28;20144;-72
2022/05/22 06:09:37;;;;;;;7.03;3.83;;;21.20;99.90;;;;;;4988035;28;20036;-65
2022/05/22 06:12:22;;;;;;;6.00;3.85;;;21.30;99.90;;;;;;4973142;28;20046;-72
2022/05/22 06:14:54;;;;;;;7.30;4.00;;;21.30;99.90;;;;;;4987869;28;20121;-71
2022/05/22 06:17:32;;;;;;;11.68;4.38;;;21.30;99.90;;;;;;4991527;28;20264;-71
2022/05/22 06:19:59;;;;;;;6.38;4.53;;;21.40;99.90;;;;;;4991887;28;20030;-69
2022/05/22 06:22:29;;;;;;;6.80;3.85;;;21.40;99.90;;;;;;4991509;28;20493;-72
2022/05/22 06:24:58;;;;;;;9.55;4.03;;;21.70;99.90;;;;;;4991729;28;20037;-72
2022/05/22 06:27:46;;;;;;;5.40;3.83;;;21.60;99.90;;;;;;4975019;28;20484;-72
2022/05/22 06:30:30;;;;;;;6.72;4.10;;;21.50;99.90;;;;;;4993070;28;20068;-73
2022/05/22 06:33:16;;;;;;;8.23;4.65;;;21.40;99.90;;;;;;4992938;28;20124;-72
2022/05/22 06:36:15;;;;;;;8.70;3.95;;;21.90;99.90;;;;;;4975819;28;20038;-72
2022/05/22 06:42:17;;;;;;;5.97;3.55;;;22.40;99.90;;;;;;4991620;28;20057;-73
2022/05/22 06:44:44;;;;;;;6.57;3.72;;;22.40;99.90;;;;;;4997080;28;20096;-73
2022/05/22 06:47:49;;;;;;;8.68;3.75;;;22.60;99.90;;;;;;4992946;28;20058;-73
2022/05/22 06:50:33;;;;;;;8.70;4.93;;;22.60;99.90;;;;;;4994925;28;20097;-73
2022/05/22 06:53:18;;;;;;;10.35;4.40;;;22.60;99.90;;;;;;4994428;28;20440;-73
2022/05/22 06:56:04;;;;;;;9.98;4.47;;;22.80;99.90;;;;;;4974895;28;20445;-73
2022/05/22 06:58:50;;;;;;;9.40;4.00;;;22.90;99.90;;;;;;4968120;28;20084;-73
2022/05/22 07:01:49;;;;;;;6.88;4.15;;;23.00;99.90;;;;;;4974693;28;20141;-73
2022/05/22 07:04:34;;;;;;;8.05;3.90;;;23.30;99.90;;;;;;4982628;28;20049;-73
2022/05/22 07:07:00;;;;;;;7.47;4.10;;;23.80;99.90;;;;;;4993452;28;20034;-73
2022/05/22 07:09:41;;;;;;;6.40;4.07;;;24.10;99.90;;;;;;4977288;28;20065;-74
2022/05/22 07:12:12;;;;;;;5.20;3.92;;;24.10;99.90;;;;;;4993475;28;20047;-74
2022/05/22 07:15:05;;;;;;;8.88;4.05;;;24.10;99.90;;;;;;4958089;28;20069;-73
2022/05/22 07:17:42;;;;;;;5.13;3.42;;;24.10;99.90;;;;;;4968520;28;20036;-74
2022/05/22 07:20:40;;;;;;;6.75;3.78;;;23.90;99.90;;;;;;4916607;29;20131;-73
2022/05/22 07:23:16;;;;;;;10.60;4.20;;;23.70;99.90;;;;;;4916207;29;20056;-73
2022/05/22 07:26:00;;;;;;;7.88;4.45;;;24.10;99.90;;;;;;4916551;29;20119;-72
2022/05/22 07:28:46;;;;;;;8.35;3.92;;;24.10;99.90;;;;;;4900793;29;20483;-73
2022/05/22 07:31:40;;;;;;;8.90;3.85;;;24.90;99.90;;;;;;4915739;29;20200;-71
2022/05/22 07:34:25;;;;;;;8.25;3.85;;;24.80;99.90;;;;;;4916705;29;20624;-73
2022/05/22 07:37:14;;;;;;;7.00;3.13;;;25.00;99.60;;;;;;4897613;29;20562;-72
2022/05/22 07:40:03;;;;;;;7.45;3.20;;;24.80;99.00;;;;;;4897818;29;20060;-73
2022/05/22 07:42:47;;;;;;;4.05;2.42;;;25.20;97.40;;;;;;4897527;29;20059;-72
2022/05/22 07:45:34;;;;;;;3.17;2.65;;;25.30;95.80;;;;;;4881768;29;20472;-72
2022/05/22 07:48:09;;;;;;;8.38;4.28;;;25.20;96.20;;;;;;4895948;29;20073;-72
2022/05/22 07:50:58;;;;;;;4.95;3.05;;;25.00;97.70;;;;;;4897592;29;20569;-67
2022/05/22 07:53:56;;;;;;;8.13;3.10;;;25.00;97.90;;;;;;4876720;29;20085;-63
2022/05/22 07:56:50;;;;;;;5.32;3.38;;;24.60;97.90;;;;;;4878295;29;20136;-74
2022/05/22 07:59:26;;;;;;;5.03;2.63;;;25.00;97.00;;;;;;4903452;29;20036;-76
2022/05/22 08:02:13;;;;;;;5.38;3.17;;;25.20;96.30;;;;;;4901616;29;20139;-69
2022/05/22 08:04:43;;;;;;;3.67;2.63;;;25.00;96.40;;;;;;4896561;29;20048;-65
2022/05/22 08:07:27;;;;;;;2.95;2.50;;;25.70;96.90;;;;;;4882473;29;20098;-73
2022/05/22 08:10:03;;;;;;;3.80;2.60;;;25.90;92.40;;;;;;4895819;29;20131;-74
2022/05/22 08:12:42;;;;;;;6.85;2.40;;;26.20;89.40;;;;;;4883019;29;20032;-72
2022/05/22 08:15:17;;;;;;;5.75;2.65;;;25.80;90.90;;;;;;4912182;29;20032;-76
2022/05/22 08:17:44;;;;;;;8.55;2.20;;;26.30;88.70;;;;;;4915330;29;20064;-74
2022/05/22 08:20:18;;;;;;;4.30;2.47;;;26.20;90.70;;;;;;4900094;29;20177;-73
2022/05/22 08:23:08;;;;;;;4.65;2.13;;;26.30;92.50;;;;;;4913739;29;20063;-73
2022/05/22 08:25:47;;;;;;;8.55;2.55;;;26.00;91.80;;;;;;4913784;29;20546;-73
2022/05/22 08:28:14;;;;;;;6.00;2.80;;;26.30;91.60;;;;;;4897772;29;20028;-71
2022/05/22 08:30:40;;;;;;;5.15;3.28;;;26.30;90.40;;;;;;4962969;28;20042;-73
2022/05/22 08:33:07;;;;;;;5.55;3.10;;;26.60;86.70;;;;;;4972624;28;20085;-70
2022/05/22 08:35:36;;;;;;;5.10;3.40;;;26.70;90.30;;;;;;4972715;28;20116;-74
2022/05/22 08:38:04;;;;;;;4.95;2.05;;;26.30;87.00;;;;;;4972653;28;20038;-65
2022/05/22 08:41:01;;;;;;;6.85;2.55;;;26.20;87.70;;;;;;4977198;28;20034;-72
2022/05/22 08:44:00;;;;;;;4.45;3.00;;;26.30;88.80;;;;;;4983331;28;20044;-73
2022/05/22 08:46:46;;;;;;;3.55;2.50;;;26.10;81.70;;;;;;4992853;28;20046;-70
2022/05/22 08:49:38;;;;;;;4.72;2.55;;;26.10;80.60;;;;;;4992480;28;20440;-68
2022/05/22 08:52:29;;;;;;;3.78;2.50;;;26.10;85.50;;;;;;4993485;28;20034;-69
2022/05/22 08:55:03;;;;;;;3.00;2.20;;;25.90;82.60;;;;;;4993944;28;20053;-74
2022/05/22 09:01:14;;;;;;;3.65;2.40;;;26.60;85.70;;;;;;4973569;28;20037;-73
2022/05/22 09:03:49;;;;;;;5.40;2.15;;;26.80;80.40;;;;;;4977038;28;20498;-74
2022/05/22 09:06:26;;;;;;;4.03;2.40;;;27.00;80.50;;;;;;4972561;28;20065;-74
2022/05/22 09:08:52;;;;;;;2.50;2.30;;;27.10;80.60;;;;;;4972946;28;20057;-74
2022/05/22 09:11:27;;;;;;;3.67;2.10;;;27.10;78.60;;;;;;4972952;28;20050;-73
2022/05/22 09:14:07;;;;;;;4.38;2.38;;;26.70;78.20;;;;;;4972715;28;20030;-73
2022/05/22 09:16:55;;;;;;;6.60;3.63;;;27.00;78.40;;;;;;4975663;28;20022;-70
2022/05/22 09:19:38;;;;;;;3.33;2.65;;;27.30;74.30;;;;;;4966014;28;20055;-72
2022/05/22 09:22:31;;;;;;;5.82;2.30;;;27.30;73.40;;;;;;4972647;28;20038;-73
2022/05/22 09:25:04;;;;;;;6.85;2.80;;;27.30;69.30;;;;;;4987265;28;20030;-74
2022/05/22 09:27:44;;;;;;;4.85;2.35;;;27.10;75.70;;;;;;4992803;28;20384;-62
2022/05/22 09:30:30;;;;;;;5.95;2.10;;;27.10;75.60;;;;;;4992969;28;20033;-74
2022/05/22 09:33:08;;;;;;;3.15;2.00;;;27.10;72.60;;;;;;4992477;28;20036;-74
2022/05/22 09:35:43;;;;;;;3.75;2.17;;;27.50;72.50;;;;;;4993055;28;20033;-73
2022/05/22 09:38:45;;;;;;;7.07;2.58;;;27.90;71.90;;;;;;4993109;28;20084;-66
2022/05/22 09:41:17;;;;;;;3.70;2.25;;;27.80;67.60;;;;;;4992905;28;20030;-75
2022/05/22 09:44:04;;;;;;;5.13;2.40;;;27.20;65.90;;;;;;4977074;28;20077;-74
2022/05/22 09:46:51;;;;;;;6.45;2.72;;;26.90;69.90;;;;;;5011519;28;20129;-71
2022/05/22 09:49:37;;;;;;;3.22;2.15;;;26.50;68.80;;;;;;5012333;28;20052;-73
2022/05/22 09:52:20;;;;;;;3.58;2.05;;;26.70;70.40;;;;;;5012608;28;20106;-74
2022/05/22 09:54:50;;;;;;;2.95;2.17;;;27.10;73.20;;;;;;5012664;28;20057;-74
2022/05/22 09:57:37;;;;;;;5.75;1.90;;;27.20;69.80;;;;;;5012696;28;20415;-73
2022/05/22 10:00:15;;;;;;;6.68;2.20;;;26.30;69.40;;;;;;4999976;28;20396;-73
2022/05/22 10:02:46;;;;;;;4.97;2.10;;;25.90;68.20;;;;;;4992550;28;20042;-73
2022/05/22 10:05:36;;;;;;;2.60;1.75;;;26.10;67.00;;;;;;4992502;28;20018;-74
2022/05/22 10:08:03;;;;;;;4.25;2.00;;;26.40;68.10;;;;;;4992933;28;20030;-72
2022/05/22 10:10:31;;;;;;;31.88;2.80;;;26.60;69.60;;;;;;4992911;28;20027;-73
2022/05/22 10:13:22;;;;;;;5.40;1.95;;;27.10;71.40;;;;;;4992606;28;20035;-73
2022/05/22 10:16:00;;;;;;;3.25;2.25;;;27.40;70.20;;;;;;4991933;28;20166;-74
2022/05/22 10:18:50;;;;;;;4.90;2.63;;;27.80;68.80;;;;;;4992080;28;20030;-72
2022/05/22 10:21:49;;;;;;;5.22;2.20;;;27.80;67.10;;;;;;4991694;28;20077;-73
2022/05/22 10:24:37;;;;;;;3.90;2.15;;;27.50;67.30;;;;;;4932125;29;20100;-73
2022/05/22 10:27:36;;;;;;;5.35;2.90;;;27.30;66.30;;;;;;4943582;28;20506;-73
2022/05/22 10:30:11;;;;;;;8.13;2.05;;;27.20;66.90;;;;;;4931765;29;20418;-74
2022/05/22 10:32:45;;;;;;;4.57;2.65;;;26.60;64.80;;;;;;4931778;29;20036;-74
2022/05/22 10:35:24;;;;;;;3.47;2.25;;;26.60;66.50;;;;;;4928805;29;20043;-74
2022/05/22 10:38:05;;;;;;;3.15;2.00;;;26.90;64.70;;;;;;4930637;29;20043;-71
2022/05/22 10:42:45;;;;;;;4.78;2.97;;;26.90;65.80;;;;;;4933417;29;20130;-65
2022/05/22 10:43:17;;;;;;;5.63;2.33;;;27.00;65.40;;;;;;4930434;29;20043;-73
2022/05/22 10:45:43;;;;;;;2.05;1.75;;;27.30;64.70;;;;;;4932229;29;20028;-69
2022/05/22 10:48:23;;;;;;;5.80;3.15;;;27.20;62.20;;;;;;4950174;28;20043;-72
2022/05/22 10:51:08;;;;;;;4.25;1.65;;;27.00;63.40;;;;;;4949345;29;20596;-75
2022/05/22 10:53:47;;;;;;;2.38;1.75;;;26.70;62.50;;;;;;4949629;28;20093;-72
2022/05/22 10:56:19;;;;;;;2.05;1.50;;;26.60;62.80;;;;;;4949510;28;20486;-73
2022/05/22 10:58:53;;;;;;;3.20;1.75;;;26.60;64.50;;;;;;4949540;28;20134;-63
2022/05/22 11:01:24;;;;;;;3.35;2.15;;;26.70;61.80;;;;;;4961797;28;20085;-63
2022/05/22 11:04:09;;;;;;;2.60;1.98;;;26.70;62.50;;;;;;4989705;28;20038;-74
2022/05/22 11:06:38;;;;;;;1.92;1.55;;;26.70;62.20;;;;;;4972990;28;20553;-73
2022/05/22 11:09:06;;;;;;;3.47;1.73;;;26.50;61.00;;;;;;4979241;28;20022;-72
2022/05/22 11:11:34;;;;;;;4.57;2.13;;;26.60;60.10;;;;;;4989484;28;20058;-73
2022/05/22 11:14:10;;;;;;;2.47;1.67;;;26.80;61.30;;;;;;4976424;28;20076;-73
2022/05/22 11:16:36;;;;;;;5.50;2.08;;;27.20;63.10;;;;;;4971325;28;20081;-73
2022/05/22 11:19:26;;;;;;;3.75;1.88;;;27.20;63.00;;;;;;4974300;28;20481;-74
2022/05/22 11:21:58;;;;;;;5.22;2.15;;;27.30;61.30;;;;;;4971277;28;20053;-72
2022/05/22 11:24:49;;;;;;;3.90;2.20;;;27.10;62.10;;;;;;4975496;28;20030;-69
2022/05/22 11:27:59;;;;;;;3.03;2.25;;;27.10;62.30;;;;;;4971122;28;20033;-74
2022/05/22 11:31:12;;;;;;;4.20;1.95;;;27.00;59.70;;;;;;4952794;28;20042;-73
2022/05/22 11:33:57;;;;;;;4.68;2.55;;;27.00;59.50;;;;;;4931368;29;20127;-68
2022/05/22 11:36:49;;;;;;;3.67;1.70;;;27.10;58.50;;;;;;4927339;29;20032;-73
2022/05/22 11:39:17;;;;;;;1.70;1.20;;;26.80;58.60;;;;;;4929050;29;20062;-73
2022/05/22 11:41:53;;;;;;;6.03;2.67;;;27.00;61.20;;;;;;4933879;29;20111;-73
2022/05/22 11:44:38;;;;;;;4.05;1.30;;;27.30;60.50;;;;;;4933636;29;20530;-73
2022/05/22 11:47:06;;;;;;;3.10;1.40;;;27.20;60.00;;;;;;4932598;29;20047;-75
2022/05/22 11:49:52;;;;;;;3.60;1.77;;;26.90;59.60;;;;;;4933895;29;20111;-73
2022/05/22 11:52:54;;;;;;;3.92;1.80;;;26.90;59.30;;;;;;4934033;29;20394;-72
2022/05/22 11:55:36;;;;;;;102.85;20.63;;;26.90;60.50;;;;;;4934572;29;20114;-74
2022/05/22 11:58:46;;;;;;;3.25;1.30;;;26.90;58.60;;;;;;4935354;29;20442;-70
2022/05/22 12:01:35;;;;;;;5.25;1.48;;;26.90;58.70;;;;;;4934062;29;20059;-73
2022/05/22 12:04:25;;;;;;;3.10;1.60;;;26.90;60.10;;;;;;4935034;29;20040;-75
2022/05/22 12:07:09;;;;;;;2.00;1.23;;;26.90;59.10;;;;;;4952762;29;20039;-74
2022/05/22 12:10:09;;;;;;;2.00;1.40;;;26.80;59.50;;;;;;4962487;28;20038;-71
2022/05/22 12:12:47;;;;;;;1.15;1.00;;;26.80;59.00;;;;;;4992903;28;20030;-74
2022/05/22 12:15:45;;;;;;;1.73;1.42;;;26.90;60.40;;;;;;4994638;28;20466;-67
2022/05/22 12:18:37;;;;;;;2.47;1.40;;;27.10;61.10;;;;;;4995202;28;20722;-73
2022/05/22 12:21:24;;;;;;;3.15;1.45;;;27.10;60.60;;;;;;4995217;28;20038;-73
2022/05/22 12:24:07;;;;;;;2.42;1.60;;;27.20;59.50;;;;;;4995211;28;20492;-73
2022/05/22 12:26:34;;;;;;;5.30;1.60;;;27.40;58.60;;;;;;4994421;28;20416;-73
2022/05/22 12:29:08;;;;;;;11.63;1.70;;;27.40;60.40;;;;;;4990945;28;20098;-74
2022/05/22 12:31:42;;;;;;;3.40;1.52;;;27.60;60.10;;;;;;4992809;28;20357;-69
2022/05/22 12:34:18;;;;;;;2.45;1.27;;;27.30;59.40;;;;;;4993630;28;20062;-73
2022/05/22 12:36:47;;;;;;;3.95;2.40;;;27.20;60.40;;;;;;4991766;28;20392;-73
2022/05/22 12:39:16;;;;;;;3.47;1.77;;;27.20;60.50;;;;;;4994519;28;20465;-74
2022/05/22 12:42:04;;;;;;;4.25;1.70;;;26.80;58.50;;;;;;4985784;28;20489;-73
2022/05/22 12:44:31;;;;;;;1.40;1.23;;;27.00;62.20;;;;;;4975055;28;20122;-68
2022/05/22 12:46:58;;;;;;;2.08;1.40;;;27.10;60.10;;;;;;4974841;28;20054;-74
2022/05/22 12:49:30;;;;;;;1.42;1.27;;;27.20;59.10;;;;;;4974994;28;20039;-75
2022/05/22 12:52:28;;;;;;;2.72;1.50;;;27.10;59.80;;;;;;4975541;28;20031;-73
2022/05/22 12:55:00;;;;;;;2.42;1.75;;;27.10;61.10;;;;;;4975009;28;20035;-65
2022/05/22 12:57:26;;;;;;;2.13;1.38;;;27.30;60.60;;;;;;4975048;28;20035;-74
2022/05/22 13:00:00;;;;;;;2.25;1.90;;;27.50;60.40;;;;;;4986260;28;20106;-75
2022/05/22 13:02:41;;;;;;;2.58;1.48;;;27.40;58.30;;;;;;4992264;28;20073;-72
2022/05/22 13:05:28;;;;;;;3.30;1.48;;;27.20;60.30;;;;;;4993012;28;20045;-71
2022/05/22 13:07:54;;;;;;;2.42;1.67;;;27.30;60.90;;;;;;4992684;28;20105;-73
2022/05/22 13:10:33;;;;;;;2.13;1.45;;;27.10;59.80;;;;;;4992955;28;20418;-73
2022/05/22 13:13:07;;;;;;;2.08;1.50;;;27.10;59.40;;;;;;4990941;28;20101;-72
2022/05/22 13:15:34;;;;;;;1.23;1.08;;;27.00;59.00;;;;;;4992939;28;20499;-74
2022/05/22 13:18:16;;;;;;;2.08;1.65;;;27.00;60.10;;;;;;4993351;28;20469;-72
2022/05/22 13:20:53;;;;;;;3.88;1.55;;;26.90;58.80;;;;;;4993215;28;20176;-72
2022/05/22 13:23:22;;;;;;;2.00;1.58;;;26.90;59.80;;;;;;4993045;28;20084;-71
2022/05/22 13:26:05;;;;;;;2.33;1.20;;;27.00;59.70;;;;;;4993689;28;20019;-71
2022/05/22 13:28:45;;;;;;;1.48;1.20;;;27.10;59.10;;;;;;4992914;28;20041;-73
2022/05/22 13:31:12;;;;;;;2.55;1.50;;;27.20;60.00;;;;;;4993306;28;20117;-73
2022/05/22 13:33:53;;;;;;;2.78;1.65;;;27.20;59.80;;;;;;4993097;28;20022;-72
2022/05/22 13:36:26;;;;;;;2.93;1.70;;;27.20;59.50;;;;;;4979985;28;20052;-73
2022/05/22 13:38:54;;;;;;;1.80;1.40;;;27.40;58.20;;;;;;4993043;28;20030;-72
2022/05/22 13:41:53;;;;;;;2.08;1.40;;;27.10;58.00;;;;;;4992107;28;20409;-69
2022/05/22 13:44:45;;;;;;;1.95;1.27;;;26.80;57.80;;;;;;4990363;28;20034;-74